<?xml version="1.0" encoding="UTF-8" standalone="no" ?>
<gpx xmlns="http://www.topografix.com/GPX/1/1" xmlns:xsi="http://www.w3.org/2001/XMLSchema-instance" xsi:schemaLocation="http://www.topografix.com/GPX/1/1 http://www.topografix.com/GPX/1/1/gpx.xsd" version="1.1" creator="VisuGPX - https://www.visugpx.com">
  <metadata>
    <name>Balade au coeur du bois de la Grande Vallée</name>
    <desc><![CDATA[prépa séjour]]></desc>
  </metadata>
  <wpt lat="48.16883" lon="3.34498">
    <ele>83</ele>
    <name><![CDATA[Parking de la salle des fêtes]]></name>
  </wpt>
  <wpt lat="48.15914" lon="3.35767">
    <ele>183</ele>
    <name><![CDATA[Intersection fourche en pleine forêt]]></name>
  </wpt>
  <wpt lat="48.14635" lon="3.36794">
    <ele>199</ele>
    <name><![CDATA[Croisement de chemins en pleine forêt]]></name>
  </wpt>
  <wpt lat="48.14437" lon="3.35995">
    <ele>209</ele>
    <name><![CDATA[Bifurcation sur route goudronnée]]></name>
  </wpt>
  <wpt lat="48.14673" lon="3.35595">
    <ele>209</ele>
    <name><![CDATA[Bifurcation sur chemin en lisière de forêt]]></name>
  </wpt>
  <wpt lat="48.14824" lon="3.33625">
    <ele>177</ele>
    <name><![CDATA[Entrée dans la forêt]]></name>
  </wpt>
  <wpt lat="48.16407" lon="3.32248">
    <ele>113</ele>
    <name><![CDATA[Bifurcation avant zone d'activité de Maillot]]></name>
  </wpt>
  <wpt lat="48.16508" lon="3.33619">
    <ele>147</ele>
    <name><![CDATA[Bifurcation sur les hauteurs de Malay-le-Grand]]></name>
  </wpt>
  <wpt lat="48.16882" lon="3.34499">
    <ele>83</ele>
    <name><![CDATA[Parking de la salle des fêtes]]></name>
  </wpt>
  <trk>
    <name><![CDATA[Balade au coeur du bois de la Grande Vallée]]></name>
    <trkseg>
      <trkpt lat="48.16883" lon="3.34498">
        <ele>83</ele>
        <time>2019-12-30T11:47:37+01:00</time>
      </trkpt>
      <trkpt lat="48.16889" lon="3.34492">
        <ele>83</ele>
        <time>2019-12-30T11:47:42+01:00</time>
      </trkpt>
      <trkpt lat="48.16919" lon="3.34506">
        <ele>82</ele>
        <time>2019-12-30T11:47:47+01:00</time>
      </trkpt>
      <trkpt lat="48.16949" lon="3.34521">
        <ele>81</ele>
        <time>2019-12-30T11:47:52+01:00</time>
      </trkpt>
      <trkpt lat="48.16939" lon="3.34557">
        <ele>80</ele>
        <time>2019-12-30T11:47:57+01:00</time>
      </trkpt>
      <trkpt lat="48.16933" lon="3.34593">
        <ele>80</ele>
        <time>2019-12-30T11:48:02+01:00</time>
      </trkpt>
      <trkpt lat="48.16909" lon="3.34598">
        <ele>80</ele>
        <time>2019-12-30T11:48:07+01:00</time>
      </trkpt>
      <trkpt lat="48.1687" lon="3.34611">
        <ele>81</ele>
        <time>2019-12-30T11:48:12+01:00</time>
      </trkpt>
      <trkpt lat="48.16822" lon="3.34624">
        <ele>81</ele>
        <time>2019-12-30T11:48:17+01:00</time>
      </trkpt>
      <trkpt lat="48.16806" lon="3.34629">
        <ele>81</ele>
        <time>2019-12-30T11:48:22+01:00</time>
      </trkpt>
      <trkpt lat="48.16776" lon="3.34632">
        <ele>82</ele>
        <time>2019-12-30T11:48:27+01:00</time>
      </trkpt>
      <trkpt lat="48.16746" lon="3.34632">
        <ele>83</ele>
        <time>2019-12-30T11:48:32+01:00</time>
      </trkpt>
      <trkpt lat="48.16731" lon="3.34629">
        <ele>84</ele>
        <time>2019-12-30T11:48:37+01:00</time>
      </trkpt>
      <trkpt lat="48.16722" lon="3.34629">
        <ele>85</ele>
        <time>2019-12-30T11:48:42+01:00</time>
      </trkpt>
      <trkpt lat="48.16713" lon="3.34626">
        <ele>85</ele>
        <time>2019-12-30T11:48:47+01:00</time>
      </trkpt>
      <trkpt lat="48.16702" lon="3.34623">
        <ele>86</ele>
        <time>2019-12-30T11:48:52+01:00</time>
      </trkpt>
      <trkpt lat="48.16687" lon="3.34649">
        <ele>88</ele>
        <time>2019-12-30T11:48:57+01:00</time>
      </trkpt>
      <trkpt lat="48.16663" lon="3.34673">
        <ele>91</ele>
        <time>2019-12-30T11:49:02+01:00</time>
      </trkpt>
      <trkpt lat="48.16622" lon="3.3471">
        <ele>95</ele>
        <time>2019-12-30T11:49:07+01:00</time>
      </trkpt>
      <trkpt lat="48.16577" lon="3.34756">
        <ele>102</ele>
        <time>2019-12-30T11:49:12+01:00</time>
      </trkpt>
      <trkpt lat="48.16541" lon="3.34789">
        <ele>107</ele>
        <time>2019-12-30T11:49:17+01:00</time>
      </trkpt>
      <trkpt lat="48.16504" lon="3.34816">
        <ele>115</ele>
        <time>2019-12-30T11:49:22+01:00</time>
      </trkpt>
      <trkpt lat="48.1643" lon="3.34832">
        <ele>123</ele>
        <time>2019-12-30T11:49:27+01:00</time>
      </trkpt>
      <trkpt lat="48.16406" lon="3.3484">
        <ele>125</ele>
        <time>2019-12-30T11:49:32+01:00</time>
      </trkpt>
      <trkpt lat="48.16394" lon="3.34845">
        <ele>125</ele>
        <time>2019-12-30T11:49:37+01:00</time>
      </trkpt>
      <trkpt lat="48.16383" lon="3.34853">
        <ele>126</ele>
        <time>2019-12-30T11:49:42+01:00</time>
      </trkpt>
      <trkpt lat="48.16352" lon="3.34883">
        <ele>131</ele>
        <time>2019-12-30T11:49:47+01:00</time>
      </trkpt>
      <trkpt lat="48.16319" lon="3.34919">
        <ele>136</ele>
        <time>2019-12-30T11:49:52+01:00</time>
      </trkpt>
      <trkpt lat="48.16288" lon="3.34952">
        <ele>138</ele>
        <time>2019-12-30T11:49:57+01:00</time>
      </trkpt>
      <trkpt lat="48.16265" lon="3.34979">
        <ele>139</ele>
        <time>2019-12-30T11:50:02+01:00</time>
      </trkpt>
      <trkpt lat="48.16245" lon="3.35014">
        <ele>142</ele>
        <time>2019-12-30T11:50:07+01:00</time>
      </trkpt>
      <trkpt lat="48.16227" lon="3.35041">
        <ele>143</ele>
        <time>2019-12-30T11:50:12+01:00</time>
      </trkpt>
      <trkpt lat="48.16206" lon="3.35071">
        <ele>144</ele>
        <time>2019-12-30T11:50:17+01:00</time>
      </trkpt>
      <trkpt lat="48.16187" lon="3.35107">
        <ele>145</ele>
        <time>2019-12-30T11:50:22+01:00</time>
      </trkpt>
      <trkpt lat="48.16163" lon="3.35165">
        <ele>148</ele>
        <time>2019-12-30T11:50:27+01:00</time>
      </trkpt>
      <trkpt lat="48.16141" lon="3.35257">
        <ele>155</ele>
        <time>2019-12-30T11:50:32+01:00</time>
      </trkpt>
      <trkpt lat="48.16127" lon="3.35288">
        <ele>156</ele>
        <time>2019-12-30T11:50:37+01:00</time>
      </trkpt>
      <trkpt lat="48.16114" lon="3.35313">
        <ele>158</ele>
        <time>2019-12-30T11:50:42+01:00</time>
      </trkpt>
      <trkpt lat="48.16064" lon="3.3539">
        <ele>162</ele>
        <time>2019-12-30T11:50:47+01:00</time>
      </trkpt>
      <trkpt lat="48.16045" lon="3.35439">
        <ele>165</ele>
        <time>2019-12-30T11:50:52+01:00</time>
      </trkpt>
      <trkpt lat="48.16039" lon="3.35471">
        <ele>167</ele>
        <time>2019-12-30T11:50:57+01:00</time>
      </trkpt>
      <trkpt lat="48.1602" lon="3.3553">
        <ele>171</ele>
        <time>2019-12-30T11:51:02+01:00</time>
      </trkpt>
      <trkpt lat="48.16016" lon="3.35542">
        <ele>172</ele>
        <time>2019-12-30T11:51:07+01:00</time>
      </trkpt>
      <trkpt lat="48.16" lon="3.35577">
        <ele>176</ele>
        <time>2019-12-30T11:51:12+01:00</time>
      </trkpt>
      <trkpt lat="48.15977" lon="3.35611">
        <ele>175</ele>
        <time>2019-12-30T11:51:17+01:00</time>
      </trkpt>
      <trkpt lat="48.15951" lon="3.35654">
        <ele>176</ele>
        <time>2019-12-30T11:51:22+01:00</time>
      </trkpt>
      <trkpt lat="48.15933" lon="3.35697">
        <ele>178</ele>
        <time>2019-12-30T11:51:27+01:00</time>
      </trkpt>
      <trkpt lat="48.15922" lon="3.3573">
        <ele>180</ele>
        <time>2019-12-30T11:51:32+01:00</time>
      </trkpt>
      <trkpt lat="48.15914" lon="3.35767">
        <ele>183</ele>
        <time>2019-12-30T11:51:37+01:00</time>
      </trkpt>
      <trkpt lat="48.15869" lon="3.35792">
        <ele>182</ele>
        <time>2019-12-30T11:51:42+01:00</time>
      </trkpt>
      <trkpt lat="48.15839" lon="3.35815">
        <ele>183</ele>
        <time>2019-12-30T11:51:47+01:00</time>
      </trkpt>
      <trkpt lat="48.15826" lon="3.35828">
        <ele>184</ele>
        <time>2019-12-30T11:51:52+01:00</time>
      </trkpt>
      <trkpt lat="48.15813" lon="3.35849">
        <ele>186</ele>
        <time>2019-12-30T11:51:57+01:00</time>
      </trkpt>
      <trkpt lat="48.158" lon="3.3588">
        <ele>188</ele>
        <time>2019-12-30T11:52:02+01:00</time>
      </trkpt>
      <trkpt lat="48.15768" lon="3.35942">
        <ele>192</ele>
        <time>2019-12-30T11:52:07+01:00</time>
      </trkpt>
      <trkpt lat="48.15723" lon="3.35982">
        <ele>191</ele>
        <time>2019-12-30T11:52:12+01:00</time>
      </trkpt>
      <trkpt lat="48.15674" lon="3.36022">
        <ele>190</ele>
        <time>2019-12-30T11:52:17+01:00</time>
      </trkpt>
      <trkpt lat="48.15654" lon="3.36037">
        <ele>190</ele>
        <time>2019-12-30T11:52:22+01:00</time>
      </trkpt>
      <trkpt lat="48.15604" lon="3.36074">
        <ele>193</ele>
        <time>2019-12-30T11:52:27+01:00</time>
      </trkpt>
      <trkpt lat="48.15563" lon="3.36106">
        <ele>194</ele>
        <time>2019-12-30T11:52:32+01:00</time>
      </trkpt>
      <trkpt lat="48.15544" lon="3.36122">
        <ele>194</ele>
        <time>2019-12-30T11:52:37+01:00</time>
      </trkpt>
      <trkpt lat="48.15523" lon="3.36134">
        <ele>194</ele>
        <time>2019-12-30T11:52:42+01:00</time>
      </trkpt>
      <trkpt lat="48.15506" lon="3.36146">
        <ele>195</ele>
        <time>2019-12-30T11:52:47+01:00</time>
      </trkpt>
      <trkpt lat="48.15493" lon="3.36158">
        <ele>195</ele>
        <time>2019-12-30T11:52:52+01:00</time>
      </trkpt>
      <trkpt lat="48.15474" lon="3.36176">
        <ele>195</ele>
        <time>2019-12-30T11:52:57+01:00</time>
      </trkpt>
      <trkpt lat="48.15435" lon="3.36201">
        <ele>195</ele>
        <time>2019-12-30T11:53:02+01:00</time>
      </trkpt>
      <trkpt lat="48.15399" lon="3.36225">
        <ele>195</ele>
        <time>2019-12-30T11:53:07+01:00</time>
      </trkpt>
      <trkpt lat="48.15365" lon="3.36252">
        <ele>196</ele>
        <time>2019-12-30T11:53:12+01:00</time>
      </trkpt>
      <trkpt lat="48.15355" lon="3.3626">
        <ele>196</ele>
        <time>2019-12-30T11:53:17+01:00</time>
      </trkpt>
      <trkpt lat="48.15331" lon="3.3627">
        <ele>196</ele>
        <time>2019-12-30T11:53:22+01:00</time>
      </trkpt>
      <trkpt lat="48.15314" lon="3.36275">
        <ele>195</ele>
        <time>2019-12-30T11:53:27+01:00</time>
      </trkpt>
      <trkpt lat="48.1529" lon="3.36275">
        <ele>196</ele>
        <time>2019-12-30T11:53:32+01:00</time>
      </trkpt>
      <trkpt lat="48.15251" lon="3.36268">
        <ele>196</ele>
        <time>2019-12-30T11:53:37+01:00</time>
      </trkpt>
      <trkpt lat="48.1523" lon="3.36276">
        <ele>195</ele>
        <time>2019-12-30T11:53:42+01:00</time>
      </trkpt>
      <trkpt lat="48.15207" lon="3.36287">
        <ele>195</ele>
        <time>2019-12-30T11:53:47+01:00</time>
      </trkpt>
      <trkpt lat="48.15187" lon="3.36302">
        <ele>195</ele>
        <time>2019-12-30T11:53:52+01:00</time>
      </trkpt>
      <trkpt lat="48.15139" lon="3.36344">
        <ele>191</ele>
        <time>2019-12-30T11:53:57+01:00</time>
      </trkpt>
      <trkpt lat="48.15114" lon="3.36365">
        <ele>189</ele>
        <time>2019-12-30T11:54:02+01:00</time>
      </trkpt>
      <trkpt lat="48.15102" lon="3.36375">
        <ele>188</ele>
        <time>2019-12-30T11:54:07+01:00</time>
      </trkpt>
      <trkpt lat="48.15079" lon="3.36386">
        <ele>186</ele>
        <time>2019-12-30T11:54:12+01:00</time>
      </trkpt>
      <trkpt lat="48.15058" lon="3.36386">
        <ele>183</ele>
        <time>2019-12-30T11:54:17+01:00</time>
      </trkpt>
      <trkpt lat="48.15036" lon="3.36389">
        <ele>181</ele>
        <time>2019-12-30T11:54:22+01:00</time>
      </trkpt>
      <trkpt lat="48.15008" lon="3.36383">
        <ele>178</ele>
        <time>2019-12-30T11:54:27+01:00</time>
      </trkpt>
      <trkpt lat="48.14928" lon="3.36384">
        <ele>181</ele>
        <time>2019-12-30T11:54:32+01:00</time>
      </trkpt>
      <trkpt lat="48.14903" lon="3.36424">
        <ele>183</ele>
        <time>2019-12-30T11:54:37+01:00</time>
      </trkpt>
      <trkpt lat="48.14831" lon="3.36488">
        <ele>185</ele>
        <time>2019-12-30T11:54:42+01:00</time>
      </trkpt>
      <trkpt lat="48.14787" lon="3.36522">
        <ele>191</ele>
        <time>2019-12-30T11:54:47+01:00</time>
      </trkpt>
      <trkpt lat="48.14751" lon="3.36587">
        <ele>198</ele>
        <time>2019-12-30T11:54:52+01:00</time>
      </trkpt>
      <trkpt lat="48.14747" lon="3.36603">
        <ele>198</ele>
        <time>2019-12-30T11:54:57+01:00</time>
      </trkpt>
      <trkpt lat="48.14733" lon="3.36637">
        <ele>199</ele>
        <time>2019-12-30T11:55:02+01:00</time>
      </trkpt>
      <trkpt lat="48.14705" lon="3.36707">
        <ele>199</ele>
        <time>2019-12-30T11:55:07+01:00</time>
      </trkpt>
      <trkpt lat="48.1469" lon="3.36732">
        <ele>199</ele>
        <time>2019-12-30T11:55:12+01:00</time>
      </trkpt>
      <trkpt lat="48.14674" lon="3.36761">
        <ele>198</ele>
        <time>2019-12-30T11:55:17+01:00</time>
      </trkpt>
      <trkpt lat="48.14653" lon="3.36786">
        <ele>199</ele>
        <time>2019-12-30T11:55:22+01:00</time>
      </trkpt>
      <trkpt lat="48.14635" lon="3.36794">
        <ele>199</ele>
        <time>2019-12-30T11:55:27+01:00</time>
      </trkpt>
      <trkpt lat="48.14628" lon="3.36774">
        <ele>200</ele>
        <time>2019-12-30T11:55:32+01:00</time>
      </trkpt>
      <trkpt lat="48.14618" lon="3.36723">
        <ele>203</ele>
        <time>2019-12-30T11:55:37+01:00</time>
      </trkpt>
      <trkpt lat="48.14554" lon="3.36563">
        <ele>207</ele>
        <time>2019-12-30T11:55:42+01:00</time>
      </trkpt>
      <trkpt lat="48.14468" lon="3.36232">
        <ele>210</ele>
        <time>2019-12-30T11:55:47+01:00</time>
      </trkpt>
      <trkpt lat="48.14453" lon="3.36169">
        <ele>211</ele>
        <time>2019-12-30T11:55:52+01:00</time>
      </trkpt>
      <trkpt lat="48.14448" lon="3.36136">
        <ele>210</ele>
        <time>2019-12-30T11:55:57+01:00</time>
      </trkpt>
      <trkpt lat="48.14444" lon="3.36105">
        <ele>210</ele>
        <time>2019-12-30T11:56:02+01:00</time>
      </trkpt>
      <trkpt lat="48.1444" lon="3.36065">
        <ele>210</ele>
        <time>2019-12-30T11:56:07+01:00</time>
      </trkpt>
      <trkpt lat="48.14437" lon="3.35995">
        <ele>209</ele>
        <time>2019-12-30T11:56:12+01:00</time>
      </trkpt>
      <trkpt lat="48.14559" lon="3.35788">
        <ele>207</ele>
        <time>2019-12-30T11:56:17+01:00</time>
      </trkpt>
      <trkpt lat="48.14616" lon="3.35691">
        <ele>206</ele>
        <time>2019-12-30T11:56:22+01:00</time>
      </trkpt>
      <trkpt lat="48.14673" lon="3.35595">
        <ele>209</ele>
        <time>2019-12-30T11:56:27+01:00</time>
      </trkpt>
      <trkpt lat="48.1467" lon="3.35584">
        <ele>209</ele>
        <time>2019-12-30T11:56:32+01:00</time>
      </trkpt>
      <trkpt lat="48.14661" lon="3.35427">
        <ele>210</ele>
        <time>2019-12-30T11:56:37+01:00</time>
      </trkpt>
      <trkpt lat="48.14655" lon="3.35344">
        <ele>211</ele>
        <time>2019-12-30T11:56:42+01:00</time>
      </trkpt>
      <trkpt lat="48.14651" lon="3.35305">
        <ele>212</ele>
        <time>2019-12-30T11:56:47+01:00</time>
      </trkpt>
      <trkpt lat="48.14641" lon="3.3526">
        <ele>213</ele>
        <time>2019-12-30T11:56:52+01:00</time>
      </trkpt>
      <trkpt lat="48.14629" lon="3.35202">
        <ele>214</ele>
        <time>2019-12-30T11:56:57+01:00</time>
      </trkpt>
      <trkpt lat="48.14632" lon="3.35175">
        <ele>214</ele>
        <time>2019-12-30T11:57:02+01:00</time>
      </trkpt>
      <trkpt lat="48.14635" lon="3.35144">
        <ele>213</ele>
        <time>2019-12-30T11:57:07+01:00</time>
      </trkpt>
      <trkpt lat="48.14634" lon="3.35119">
        <ele>213</ele>
        <time>2019-12-30T11:57:12+01:00</time>
      </trkpt>
      <trkpt lat="48.14632" lon="3.35095">
        <ele>212</ele>
        <time>2019-12-30T11:57:17+01:00</time>
      </trkpt>
      <trkpt lat="48.14625" lon="3.34974">
        <ele>209</ele>
        <time>2019-12-30T11:57:22+01:00</time>
      </trkpt>
      <trkpt lat="48.14618" lon="3.34847">
        <ele>205</ele>
        <time>2019-12-30T11:57:27+01:00</time>
      </trkpt>
      <trkpt lat="48.14614" lon="3.34767">
        <ele>201</ele>
        <time>2019-12-30T11:57:32+01:00</time>
      </trkpt>
      <trkpt lat="48.14608" lon="3.34682">
        <ele>198</ele>
        <time>2019-12-30T11:57:37+01:00</time>
      </trkpt>
      <trkpt lat="48.14603" lon="3.34583">
        <ele>194</ele>
        <time>2019-12-30T11:57:42+01:00</time>
      </trkpt>
      <trkpt lat="48.14599" lon="3.34488">
        <ele>189</ele>
        <time>2019-12-30T11:57:47+01:00</time>
      </trkpt>
      <trkpt lat="48.14597" lon="3.34477">
        <ele>189</ele>
        <time>2019-12-30T11:57:52+01:00</time>
      </trkpt>
      <trkpt lat="48.14595" lon="3.34466">
        <ele>188</ele>
        <time>2019-12-30T11:57:57+01:00</time>
      </trkpt>
      <trkpt lat="48.14596" lon="3.34448">
        <ele>187</ele>
        <time>2019-12-30T11:58:02+01:00</time>
      </trkpt>
      <trkpt lat="48.146" lon="3.34404">
        <ele>186</ele>
        <time>2019-12-30T11:58:07+01:00</time>
      </trkpt>
      <trkpt lat="48.14603" lon="3.3438">
        <ele>186</ele>
        <time>2019-12-30T11:58:12+01:00</time>
      </trkpt>
      <trkpt lat="48.14602" lon="3.34287">
        <ele>185</ele>
        <time>2019-12-30T11:58:17+01:00</time>
      </trkpt>
      <trkpt lat="48.14598" lon="3.34234">
        <ele>184</ele>
        <time>2019-12-30T11:58:22+01:00</time>
      </trkpt>
      <trkpt lat="48.14598" lon="3.34215">
        <ele>183</ele>
        <time>2019-12-30T11:58:27+01:00</time>
      </trkpt>
      <trkpt lat="48.14593" lon="3.34181">
        <ele>182</ele>
        <time>2019-12-30T11:58:32+01:00</time>
      </trkpt>
      <trkpt lat="48.14583" lon="3.34111">
        <ele>180</ele>
        <time>2019-12-30T11:58:37+01:00</time>
      </trkpt>
      <trkpt lat="48.14585" lon="3.34104">
        <ele>180</ele>
        <time>2019-12-30T11:58:42+01:00</time>
      </trkpt>
      <trkpt lat="48.1468" lon="3.34038">
        <ele>180</ele>
        <time>2019-12-30T11:58:47+01:00</time>
      </trkpt>
      <trkpt lat="48.14693" lon="3.34022">
        <ele>179</ele>
        <time>2019-12-30T11:58:52+01:00</time>
      </trkpt>
      <trkpt lat="48.14701" lon="3.33999">
        <ele>178</ele>
        <time>2019-12-30T11:58:57+01:00</time>
      </trkpt>
      <trkpt lat="48.14708" lon="3.33978">
        <ele>177</ele>
        <time>2019-12-30T11:59:02+01:00</time>
      </trkpt>
      <trkpt lat="48.14711" lon="3.33936">
        <ele>177</ele>
        <time>2019-12-30T11:59:07+01:00</time>
      </trkpt>
      <trkpt lat="48.14712" lon="3.33917">
        <ele>177</ele>
        <time>2019-12-30T11:59:12+01:00</time>
      </trkpt>
      <trkpt lat="48.1472" lon="3.33887">
        <ele>177</ele>
        <time>2019-12-30T11:59:17+01:00</time>
      </trkpt>
      <trkpt lat="48.14723" lon="3.33874">
        <ele>177</ele>
        <time>2019-12-30T11:59:22+01:00</time>
      </trkpt>
      <trkpt lat="48.1473" lon="3.33871">
        <ele>177</ele>
        <time>2019-12-30T11:59:27+01:00</time>
      </trkpt>
      <trkpt lat="48.14738" lon="3.33871">
        <ele>177</ele>
        <time>2019-12-30T11:59:32+01:00</time>
      </trkpt>
      <trkpt lat="48.14746" lon="3.33869">
        <ele>178</ele>
        <time>2019-12-30T11:59:37+01:00</time>
      </trkpt>
      <trkpt lat="48.14757" lon="3.33824">
        <ele>178</ele>
        <time>2019-12-30T11:59:42+01:00</time>
      </trkpt>
      <trkpt lat="48.14774" lon="3.33773">
        <ele>177</ele>
        <time>2019-12-30T11:59:47+01:00</time>
      </trkpt>
      <trkpt lat="48.14791" lon="3.33721">
        <ele>177</ele>
        <time>2019-12-30T11:59:52+01:00</time>
      </trkpt>
      <trkpt lat="48.14807" lon="3.33674">
        <ele>177</ele>
        <time>2019-12-30T11:59:57+01:00</time>
      </trkpt>
      <trkpt lat="48.14824" lon="3.33625">
        <ele>177</ele>
        <time>2019-12-30T12:00:02+01:00</time>
      </trkpt>
      <trkpt lat="48.14838" lon="3.336">
        <ele>177</ele>
        <time>2019-12-30T12:00:07+01:00</time>
      </trkpt>
      <trkpt lat="48.14853" lon="3.33574">
        <ele>177</ele>
        <time>2019-12-30T12:00:12+01:00</time>
      </trkpt>
      <trkpt lat="48.14875" lon="3.33546">
        <ele>176</ele>
        <time>2019-12-30T12:00:17+01:00</time>
      </trkpt>
      <trkpt lat="48.14886" lon="3.33531">
        <ele>176</ele>
        <time>2019-12-30T12:00:22+01:00</time>
      </trkpt>
      <trkpt lat="48.14895" lon="3.33516">
        <ele>176</ele>
        <time>2019-12-30T12:00:27+01:00</time>
      </trkpt>
      <trkpt lat="48.14925" lon="3.3349">
        <ele>176</ele>
        <time>2019-12-30T12:00:32+01:00</time>
      </trkpt>
      <trkpt lat="48.14955" lon="3.33473">
        <ele>177</ele>
        <time>2019-12-30T12:00:37+01:00</time>
      </trkpt>
      <trkpt lat="48.15002" lon="3.33443">
        <ele>178</ele>
        <time>2019-12-30T12:00:42+01:00</time>
      </trkpt>
      <trkpt lat="48.15042" lon="3.33416">
        <ele>179</ele>
        <time>2019-12-30T12:00:47+01:00</time>
      </trkpt>
      <trkpt lat="48.15084" lon="3.33372">
        <ele>180</ele>
        <time>2019-12-30T12:00:52+01:00</time>
      </trkpt>
      <trkpt lat="48.15214" lon="3.33243">
        <ele>181</ele>
        <time>2019-12-30T12:00:57+01:00</time>
      </trkpt>
      <trkpt lat="48.15231" lon="3.33222">
        <ele>181</ele>
        <time>2019-12-30T12:01:02+01:00</time>
      </trkpt>
      <trkpt lat="48.15251" lon="3.33209">
        <ele>181</ele>
        <time>2019-12-30T12:01:07+01:00</time>
      </trkpt>
      <trkpt lat="48.15267" lon="3.33199">
        <ele>181</ele>
        <time>2019-12-30T12:01:12+01:00</time>
      </trkpt>
      <trkpt lat="48.15305" lon="3.33175">
        <ele>181</ele>
        <time>2019-12-30T12:01:17+01:00</time>
      </trkpt>
      <trkpt lat="48.15343" lon="3.33135">
        <ele>181</ele>
        <time>2019-12-30T12:01:22+01:00</time>
      </trkpt>
      <trkpt lat="48.15361" lon="3.33106">
        <ele>181</ele>
        <time>2019-12-30T12:01:27+01:00</time>
      </trkpt>
      <trkpt lat="48.1538" lon="3.33081">
        <ele>182</ele>
        <time>2019-12-30T12:01:32+01:00</time>
      </trkpt>
      <trkpt lat="48.15399" lon="3.33068">
        <ele>182</ele>
        <time>2019-12-30T12:01:37+01:00</time>
      </trkpt>
      <trkpt lat="48.15462" lon="3.33057">
        <ele>182</ele>
        <time>2019-12-30T12:01:42+01:00</time>
      </trkpt>
      <trkpt lat="48.15517" lon="3.33041">
        <ele>182</ele>
        <time>2019-12-30T12:01:47+01:00</time>
      </trkpt>
      <trkpt lat="48.1553" lon="3.33036">
        <ele>181</ele>
        <time>2019-12-30T12:01:52+01:00</time>
      </trkpt>
      <trkpt lat="48.15556" lon="3.33031">
        <ele>181</ele>
        <time>2019-12-30T12:01:57+01:00</time>
      </trkpt>
      <trkpt lat="48.15578" lon="3.33029">
        <ele>180</ele>
        <time>2019-12-30T12:02:02+01:00</time>
      </trkpt>
      <trkpt lat="48.1565" lon="3.33024">
        <ele>177</ele>
        <time>2019-12-30T12:02:07+01:00</time>
      </trkpt>
      <trkpt lat="48.15689" lon="3.3302">
        <ele>177</ele>
        <time>2019-12-30T12:02:12+01:00</time>
      </trkpt>
      <trkpt lat="48.15722" lon="3.33012">
        <ele>178</ele>
        <time>2019-12-30T12:02:17+01:00</time>
      </trkpt>
      <trkpt lat="48.15773" lon="3.33007">
        <ele>177</ele>
        <time>2019-12-30T12:02:22+01:00</time>
      </trkpt>
      <trkpt lat="48.158" lon="3.33">
        <ele>175</ele>
        <time>2019-12-30T12:02:27+01:00</time>
      </trkpt>
      <trkpt lat="48.15819" lon="3.32993">
        <ele>174</ele>
        <time>2019-12-30T12:02:32+01:00</time>
      </trkpt>
      <trkpt lat="48.15827" lon="3.32983">
        <ele>174</ele>
        <time>2019-12-30T12:02:37+01:00</time>
      </trkpt>
      <trkpt lat="48.15913" lon="3.32856">
        <ele>163</ele>
        <time>2019-12-30T12:02:42+01:00</time>
      </trkpt>
      <trkpt lat="48.15936" lon="3.32821">
        <ele>160</ele>
        <time>2019-12-30T12:02:47+01:00</time>
      </trkpt>
      <trkpt lat="48.15998" lon="3.3275">
        <ele>152</ele>
        <time>2019-12-30T12:02:52+01:00</time>
      </trkpt>
      <trkpt lat="48.16022" lon="3.32718">
        <ele>148</ele>
        <time>2019-12-30T12:02:57+01:00</time>
      </trkpt>
      <trkpt lat="48.16044" lon="3.32696">
        <ele>145</ele>
        <time>2019-12-30T12:03:02+01:00</time>
      </trkpt>
      <trkpt lat="48.16055" lon="3.32683">
        <ele>143</ele>
        <time>2019-12-30T12:03:07+01:00</time>
      </trkpt>
      <trkpt lat="48.16069" lon="3.32667">
        <ele>140</ele>
        <time>2019-12-30T12:03:12+01:00</time>
      </trkpt>
      <trkpt lat="48.16093" lon="3.32635">
        <ele>137</ele>
        <time>2019-12-30T12:03:17+01:00</time>
      </trkpt>
      <trkpt lat="48.16113" lon="3.32602">
        <ele>136</ele>
        <time>2019-12-30T12:03:22+01:00</time>
      </trkpt>
      <trkpt lat="48.16124" lon="3.3257">
        <ele>134</ele>
        <time>2019-12-30T12:03:27+01:00</time>
      </trkpt>
      <trkpt lat="48.1613" lon="3.32554">
        <ele>133</ele>
        <time>2019-12-30T12:03:32+01:00</time>
      </trkpt>
      <trkpt lat="48.16147" lon="3.32525">
        <ele>132</ele>
        <time>2019-12-30T12:03:37+01:00</time>
      </trkpt>
      <trkpt lat="48.16171" lon="3.32481">
        <ele>130</ele>
        <time>2019-12-30T12:03:42+01:00</time>
      </trkpt>
      <trkpt lat="48.16194" lon="3.32437">
        <ele>126</ele>
        <time>2019-12-30T12:03:47+01:00</time>
      </trkpt>
      <trkpt lat="48.16224" lon="3.32395">
        <ele>123</ele>
        <time>2019-12-30T12:03:52+01:00</time>
      </trkpt>
      <trkpt lat="48.16246" lon="3.32365">
        <ele>122</ele>
        <time>2019-12-30T12:03:57+01:00</time>
      </trkpt>
      <trkpt lat="48.16293" lon="3.32322">
        <ele>119</ele>
        <time>2019-12-30T12:04:02+01:00</time>
      </trkpt>
      <trkpt lat="48.16315" lon="3.32304">
        <ele>117</ele>
        <time>2019-12-30T12:04:07+01:00</time>
      </trkpt>
      <trkpt lat="48.16338" lon="3.32284">
        <ele>115</ele>
        <time>2019-12-30T12:04:12+01:00</time>
      </trkpt>
      <trkpt lat="48.16377" lon="3.3226">
        <ele>114</ele>
        <time>2019-12-30T12:04:17+01:00</time>
      </trkpt>
      <trkpt lat="48.16407" lon="3.32248">
        <ele>113</ele>
        <time>2019-12-30T12:04:22+01:00</time>
      </trkpt>
      <trkpt lat="48.16406" lon="3.3226">
        <ele>113</ele>
        <time>2019-12-30T12:04:27+01:00</time>
      </trkpt>
      <trkpt lat="48.16428" lon="3.32484">
        <ele>120</ele>
        <time>2019-12-30T12:04:32+01:00</time>
      </trkpt>
      <trkpt lat="48.16431" lon="3.32499">
        <ele>121</ele>
        <time>2019-12-30T12:04:37+01:00</time>
      </trkpt>
      <trkpt lat="48.16441" lon="3.32514">
        <ele>122</ele>
        <time>2019-12-30T12:04:42+01:00</time>
      </trkpt>
      <trkpt lat="48.16465" lon="3.32535">
        <ele>123</ele>
        <time>2019-12-30T12:04:47+01:00</time>
      </trkpt>
      <trkpt lat="48.16478" lon="3.32549">
        <ele>123</ele>
        <time>2019-12-30T12:04:52+01:00</time>
      </trkpt>
      <trkpt lat="48.16487" lon="3.32565">
        <ele>124</ele>
        <time>2019-12-30T12:04:57+01:00</time>
      </trkpt>
      <trkpt lat="48.16475" lon="3.32667">
        <ele>128</ele>
        <time>2019-12-30T12:05:02+01:00</time>
      </trkpt>
      <trkpt lat="48.16469" lon="3.32719">
        <ele>131</ele>
        <time>2019-12-30T12:05:07+01:00</time>
      </trkpt>
      <trkpt lat="48.16461" lon="3.32772">
        <ele>135</ele>
        <time>2019-12-30T12:05:12+01:00</time>
      </trkpt>
      <trkpt lat="48.16464" lon="3.32781">
        <ele>135</ele>
        <time>2019-12-30T12:05:17+01:00</time>
      </trkpt>
      <trkpt lat="48.16481" lon="3.32796">
        <ele>135</ele>
        <time>2019-12-30T12:05:22+01:00</time>
      </trkpt>
      <trkpt lat="48.16498" lon="3.32819">
        <ele>135</ele>
        <time>2019-12-30T12:05:27+01:00</time>
      </trkpt>
      <trkpt lat="48.16524" lon="3.3286">
        <ele>137</ele>
        <time>2019-12-30T12:05:32+01:00</time>
      </trkpt>
      <trkpt lat="48.16556" lon="3.32926">
        <ele>140</ele>
        <time>2019-12-30T12:05:37+01:00</time>
      </trkpt>
      <trkpt lat="48.16582" lon="3.32996">
        <ele>142</ele>
        <time>2019-12-30T12:05:42+01:00</time>
      </trkpt>
      <trkpt lat="48.16596" lon="3.33031">
        <ele>143</ele>
        <time>2019-12-30T12:05:47+01:00</time>
      </trkpt>
      <trkpt lat="48.16602" lon="3.33052">
        <ele>144</ele>
        <time>2019-12-30T12:05:52+01:00</time>
      </trkpt>
      <trkpt lat="48.1661" lon="3.33071">
        <ele>145</ele>
        <time>2019-12-30T12:05:57+01:00</time>
      </trkpt>
      <trkpt lat="48.16625" lon="3.33112">
        <ele>147</ele>
        <time>2019-12-30T12:06:02+01:00</time>
      </trkpt>
      <trkpt lat="48.1664" lon="3.33155">
        <ele>148</ele>
        <time>2019-12-30T12:06:07+01:00</time>
      </trkpt>
      <trkpt lat="48.16661" lon="3.33195">
        <ele>149</ele>
        <time>2019-12-30T12:06:12+01:00</time>
      </trkpt>
      <trkpt lat="48.16677" lon="3.33221">
        <ele>149</ele>
        <time>2019-12-30T12:06:17+01:00</time>
      </trkpt>
      <trkpt lat="48.16668" lon="3.33251">
        <ele>150</ele>
        <time>2019-12-30T12:06:22+01:00</time>
      </trkpt>
      <trkpt lat="48.16655" lon="3.3329">
        <ele>149</ele>
        <time>2019-12-30T12:06:27+01:00</time>
      </trkpt>
      <trkpt lat="48.16639" lon="3.3333">
        <ele>149</ele>
        <time>2019-12-30T12:06:32+01:00</time>
      </trkpt>
      <trkpt lat="48.16629" lon="3.33352">
        <ele>149</ele>
        <time>2019-12-30T12:06:37+01:00</time>
      </trkpt>
      <trkpt lat="48.16617" lon="3.33377">
        <ele>148</ele>
        <time>2019-12-30T12:06:42+01:00</time>
      </trkpt>
      <trkpt lat="48.16594" lon="3.33428">
        <ele>147</ele>
        <time>2019-12-30T12:06:47+01:00</time>
      </trkpt>
      <trkpt lat="48.16579" lon="3.33445">
        <ele>147</ele>
        <time>2019-12-30T12:06:52+01:00</time>
      </trkpt>
      <trkpt lat="48.16564" lon="3.33455">
        <ele>148</ele>
        <time>2019-12-30T12:06:57+01:00</time>
      </trkpt>
      <trkpt lat="48.16544" lon="3.33494">
        <ele>148</ele>
        <time>2019-12-30T12:07:02+01:00</time>
      </trkpt>
      <trkpt lat="48.16534" lon="3.33523">
        <ele>149</ele>
        <time>2019-12-30T12:07:07+01:00</time>
      </trkpt>
      <trkpt lat="48.16524" lon="3.33558">
        <ele>148</ele>
        <time>2019-12-30T12:07:12+01:00</time>
      </trkpt>
      <trkpt lat="48.16516" lon="3.33588">
        <ele>148</ele>
        <time>2019-12-30T12:07:17+01:00</time>
      </trkpt>
      <trkpt lat="48.16508" lon="3.33619">
        <ele>147</ele>
        <time>2019-12-30T12:07:22+01:00</time>
      </trkpt>
      <trkpt lat="48.16502" lon="3.33644">
        <ele>147</ele>
        <time>2019-12-30T12:07:27+01:00</time>
      </trkpt>
      <trkpt lat="48.16517" lon="3.33654">
        <ele>146</ele>
        <time>2019-12-30T12:07:32+01:00</time>
      </trkpt>
      <trkpt lat="48.16523" lon="3.33664">
        <ele>145</ele>
        <time>2019-12-30T12:07:37+01:00</time>
      </trkpt>
      <trkpt lat="48.16525" lon="3.3367">
        <ele>145</ele>
        <time>2019-12-30T12:07:42+01:00</time>
      </trkpt>
      <trkpt lat="48.16521" lon="3.33682">
        <ele>144</ele>
        <time>2019-12-30T12:07:47+01:00</time>
      </trkpt>
      <trkpt lat="48.16507" lon="3.3371">
        <ele>144</ele>
        <time>2019-12-30T12:07:52+01:00</time>
      </trkpt>
      <trkpt lat="48.16498" lon="3.33729">
        <ele>143</ele>
        <time>2019-12-30T12:07:57+01:00</time>
      </trkpt>
      <trkpt lat="48.16493" lon="3.33748">
        <ele>142</ele>
        <time>2019-12-30T12:08:02+01:00</time>
      </trkpt>
      <trkpt lat="48.16492" lon="3.33759">
        <ele>141</ele>
        <time>2019-12-30T12:08:07+01:00</time>
      </trkpt>
      <trkpt lat="48.16499" lon="3.33769">
        <ele>140</ele>
        <time>2019-12-30T12:08:12+01:00</time>
      </trkpt>
      <trkpt lat="48.16515" lon="3.33784">
        <ele>138</ele>
        <time>2019-12-30T12:08:17+01:00</time>
      </trkpt>
      <trkpt lat="48.16529" lon="3.338">
        <ele>136</ele>
        <time>2019-12-30T12:08:22+01:00</time>
      </trkpt>
      <trkpt lat="48.16541" lon="3.33817">
        <ele>134</ele>
        <time>2019-12-30T12:08:27+01:00</time>
      </trkpt>
      <trkpt lat="48.1657" lon="3.3387">
        <ele>129</ele>
        <time>2019-12-30T12:08:32+01:00</time>
      </trkpt>
      <trkpt lat="48.16611" lon="3.33925">
        <ele>123</ele>
        <time>2019-12-30T12:08:37+01:00</time>
      </trkpt>
      <trkpt lat="48.16628" lon="3.33939">
        <ele>120</ele>
        <time>2019-12-30T12:08:42+01:00</time>
      </trkpt>
      <trkpt lat="48.16659" lon="3.33956">
        <ele>118</ele>
        <time>2019-12-30T12:08:47+01:00</time>
      </trkpt>
      <trkpt lat="48.16684" lon="3.33973">
        <ele>115</ele>
        <time>2019-12-30T12:08:52+01:00</time>
      </trkpt>
      <trkpt lat="48.16701" lon="3.33982">
        <ele>114</ele>
        <time>2019-12-30T12:08:57+01:00</time>
      </trkpt>
      <trkpt lat="48.16717" lon="3.33999">
        <ele>112</ele>
        <time>2019-12-30T12:09:02+01:00</time>
      </trkpt>
      <trkpt lat="48.16735" lon="3.34009">
        <ele>110</ele>
        <time>2019-12-30T12:09:07+01:00</time>
      </trkpt>
      <trkpt lat="48.16768" lon="3.34026">
        <ele>106</ele>
        <time>2019-12-30T12:09:12+01:00</time>
      </trkpt>
      <trkpt lat="48.16787" lon="3.34034">
        <ele>104</ele>
        <time>2019-12-30T12:09:17+01:00</time>
      </trkpt>
      <trkpt lat="48.16802" lon="3.3404">
        <ele>102</ele>
        <time>2019-12-30T12:09:22+01:00</time>
      </trkpt>
      <trkpt lat="48.1681" lon="3.34052">
        <ele>101</ele>
        <time>2019-12-30T12:09:27+01:00</time>
      </trkpt>
      <trkpt lat="48.16811" lon="3.34067">
        <ele>101</ele>
        <time>2019-12-30T12:09:32+01:00</time>
      </trkpt>
      <trkpt lat="48.168" lon="3.34129">
        <ele>100</ele>
        <time>2019-12-30T12:09:37+01:00</time>
      </trkpt>
      <trkpt lat="48.16786" lon="3.34192">
        <ele>100</ele>
        <time>2019-12-30T12:09:42+01:00</time>
      </trkpt>
      <trkpt lat="48.16777" lon="3.34236">
        <ele>99</ele>
        <time>2019-12-30T12:09:47+01:00</time>
      </trkpt>
      <trkpt lat="48.16774" lon="3.3425">
        <ele>99</ele>
        <time>2019-12-30T12:09:52+01:00</time>
      </trkpt>
      <trkpt lat="48.16773" lon="3.34275">
        <ele>98</ele>
        <time>2019-12-30T12:09:57+01:00</time>
      </trkpt>
      <trkpt lat="48.16772" lon="3.34294">
        <ele>97</ele>
        <time>2019-12-30T12:10:02+01:00</time>
      </trkpt>
      <trkpt lat="48.1678" lon="3.34328">
        <ele>94</ele>
        <time>2019-12-30T12:10:07+01:00</time>
      </trkpt>
      <trkpt lat="48.16788" lon="3.34363">
        <ele>91</ele>
        <time>2019-12-30T12:10:12+01:00</time>
      </trkpt>
      <trkpt lat="48.16794" lon="3.34389">
        <ele>89</ele>
        <time>2019-12-30T12:10:17+01:00</time>
      </trkpt>
      <trkpt lat="48.16794" lon="3.3441">
        <ele>89</ele>
        <time>2019-12-30T12:10:22+01:00</time>
      </trkpt>
      <trkpt lat="48.16796" lon="3.34435">
        <ele>87</ele>
        <time>2019-12-30T12:10:27+01:00</time>
      </trkpt>
      <trkpt lat="48.16796" lon="3.34451">
        <ele>87</ele>
        <time>2019-12-30T12:10:32+01:00</time>
      </trkpt>
      <trkpt lat="48.16798" lon="3.34461">
        <ele>86</ele>
        <time>2019-12-30T12:10:37+01:00</time>
      </trkpt>
      <trkpt lat="48.16803" lon="3.34469">
        <ele>86</ele>
        <time>2019-12-30T12:10:42+01:00</time>
      </trkpt>
      <trkpt lat="48.16808" lon="3.3446">
        <ele>86</ele>
        <time>2019-12-30T12:10:47+01:00</time>
      </trkpt>
      <trkpt lat="48.1682" lon="3.3446">
        <ele>85</ele>
        <time>2019-12-30T12:10:52+01:00</time>
      </trkpt>
      <trkpt lat="48.16859" lon="3.34479">
        <ele>83</ele>
        <time>2019-12-30T12:10:57+01:00</time>
      </trkpt>
      <trkpt lat="48.16885" lon="3.3449">
        <ele>83</ele>
        <time>2019-12-30T12:11:02+01:00</time>
      </trkpt>
      <trkpt lat="48.16882" lon="3.34499">
        <ele>83</ele>
        <time>2019-12-30T12:11:07+01:00</time>
      </trkpt>
    </trkseg>
  </trk>
</gpx>